createdAt,value
2023-12-27T00:00:20.982Z,8.59
2023-12-27T00:03:23.158Z,8.75
2023-12-27T00:06:25.281Z,8.77
2023-12-27T00:09:27.464Z,8.50
2023-12-27T00:12:29.506Z,8.44
2023-12-27T00:15:31.642Z,8.58
2023-12-27T00:18:33.845Z,8.47
2023-12-27T00:21:36.181Z,8.51
2023-12-27T00:24:38.330Z,8.50
2023-12-27T00:27:40.529Z,8.44
2023-12-27T00:30:42.778Z,8.66
2023-12-27T00:33:45.148Z,8.58
2023-12-27T00:36:47.292Z,8.56
2023-12-27T00:39:49.298Z,8.51
2023-12-27T00:42:52.471Z,8.53
2023-12-27T00:45:54.502Z,8.50
2023-12-27T00:48:56.686Z,8.46
2023-12-27T00:51:58.794Z,8.44
2023-12-27T00:55:01.369Z,8.44
2023-12-27T00:58:03.456Z,8.40
2023-12-27T01:01:05.564Z,8.34
2023-12-27T01:04:07.671Z,8.51
2023-12-27T01:07:09.748Z,8.66
2023-12-27T01:10:11.742Z,8.43
2023-12-27T01:13:14.874Z,8.54
2023-12-27T01:16:16.940Z,8.63
2023-12-27T01:19:19.038Z,8.55
2023-12-27T01:22:21.412Z,8.48
2023-12-27T01:25:23.401Z,8.33
2023-12-27T01:28:25.396Z,8.46
2023-12-27T01:31:27.511Z,8.35
2023-12-27T01:34:29.827Z,8.33
2023-12-27T01:37:33.794Z,8.35
2023-12-27T01:40:36.256Z,8.31
2023-12-27T01:43:39.119Z,8.37
2023-12-27T01:46:41.346Z,8.36
2023-12-27T01:49:43.497Z,8.30
2023-12-27T01:52:45.749Z,8.55
2023-12-27T01:55:48.851Z,8.33
2023-12-27T01:58:51.232Z,8.39
2023-12-27T02:01:53.822Z,8.35
2023-12-27T02:04:55.856Z,8.34
2023-12-27T02:07:59.196Z,8.54
2023-12-27T02:11:01.976Z,8.38
2023-12-27T02:14:07.700Z,8.33
2023-12-27T02:17:09.913Z,8.34
2023-12-27T02:20:12.302Z,8.24
2023-12-27T02:23:19.065Z,8.18
2023-12-27T02:26:21.534Z,8.22
2023-12-27T02:29:23.913Z,8.28
2023-12-27T02:32:27.809Z,8.31
2023-12-27T02:35:29.994Z,8.18
2023-12-27T02:38:32.060Z,8.19
2023-12-27T02:41:34.280Z,8.55
2023-12-27T02:44:36.398Z,8.37
2023-12-27T02:47:38.440Z,8.31
2023-12-27T02:50:40.563Z,8.22
2023-12-27T02:53:42.674Z,8.16
2023-12-27T02:56:44.707Z,8.13
2023-12-27T02:59:46.810Z,8.15
2023-12-27T03:02:48.857Z,8.17
2023-12-27T03:05:51.041Z,8.16
2023-12-27T03:08:55.132Z,8.15
2023-12-27T03:11:57.941Z,8.24
2023-12-27T03:14:59.998Z,8.00
2023-12-27T03:18:02.562Z,8.44
2023-12-27T03:21:05.033Z,8.08
2023-12-27T03:24:07.188Z,8.23
2023-12-27T03:27:09.408Z,8.17
2023-12-27T03:30:12.268Z,8.11
2023-12-27T03:33:14.522Z,8.08
2023-12-27T03:36:16.640Z,8.06
2023-12-27T03:39:18.871Z,8.08
2023-12-27T03:42:21.098Z,8.45
2023-12-27T03:45:23.221Z,8.30
2023-12-27T03:48:25.703Z,8.15
2023-12-27T03:51:27.988Z,8.11
2023-12-27T03:54:30.060Z,8.08
2023-12-27T03:57:32.394Z,8.12
2023-12-27T04:00:35.659Z,8.24
2023-12-27T04:03:37.928Z,8.27
2023-12-27T04:06:40.126Z,8.13
2023-12-27T04:09:42.747Z,8.10
2023-12-27T04:12:45.024Z,8.05
2023-12-27T04:15:47.408Z,8.07
2023-12-27T04:18:49.934Z,8.06
2023-12-27T04:21:52.745Z,8.06
2023-12-27T04:24:56.389Z,8.10
2023-12-27T04:27:59.877Z,8.26
2023-12-27T04:31:02.223Z,8.16
2023-12-27T04:34:04.591Z,8.37
2023-12-27T04:37:11.088Z,8.37
2023-12-27T04:40:13.184Z,8.38
2023-12-27T04:43:15.385Z,8.40
2023-12-27T04:46:17.929Z,8.18
2023-12-27T04:49:20.067Z,8.51
2023-12-27T04:52:22.723Z,8.43
2023-12-27T04:55:24.971Z,8.41
2023-12-27T04:58:26.994Z,8.46
2023-12-27T05:01:29.249Z,8.16
2023-12-27T05:04:31.258Z,8.16
2023-12-27T05:07:34.165Z,8.19
2023-12-27T05:10:36.155Z,8.04
2023-12-27T05:13:38.172Z,8.27
2023-12-27T05:16:40.205Z,8.20
2023-12-27T05:19:42.326Z,7.98
2023-12-27T05:22:45.773Z,7.91
2023-12-27T05:25:47.802Z,7.98
2023-12-27T05:28:49.853Z,7.95
2023-12-27T05:31:51.948Z,8.06
2023-12-27T05:34:54.428Z,7.92
2023-12-27T05:37:56.622Z,7.96
2023-12-27T05:40:58.832Z,8.12
2023-12-27T05:44:02.544Z,8.27
2023-12-27T05:47:04.691Z,8.20
2023-12-27T05:50:07.807Z,8.18
2023-12-27T05:53:13.595Z,8.17
2023-12-27T05:56:16.869Z,8.23
2023-12-27T05:59:18.966Z,8.15
2023-12-27T06:02:21.062Z,8.09
2023-12-27T06:05:24.192Z,8.12
2023-12-27T06:08:26.239Z,8.13
2023-12-27T06:11:28.314Z,8.10
2023-12-27T06:14:30.367Z,7.91
2023-12-27T06:17:32.522Z,7.92
2023-12-27T06:20:34.644Z,7.90
2023-12-27T06:23:36.882Z,7.84
2023-12-27T06:26:38.910Z,7.72
2023-12-27T06:29:41.047Z,7.60
2023-12-27T06:32:43.143Z,7.52
2023-12-27T06:35:45.354Z,7.60
2023-12-27T06:38:47.600Z,7.49
2023-12-27T06:41:49.786Z,7.94
2023-12-27T06:44:51.888Z,7.86
2023-12-27T06:47:54.068Z,7.86
2023-12-27T06:50:56.123Z,7.74
2023-12-27T06:53:58.107Z,7.61
2023-12-27T06:57:00.980Z,7.53
2023-12-27T07:00:04.189Z,7.34
2023-12-27T07:03:06.760Z,7.38
2023-12-27T07:06:09.353Z,7.40
2023-12-27T07:09:11.694Z,7.47
2023-12-27T07:12:14.092Z,7.46
2023-12-27T07:15:16.560Z,7.45
2023-12-27T07:18:18.736Z,7.54
2023-12-27T07:21:22.400Z,7.57
2023-12-27T07:24:24.488Z,7.54
2023-12-27T07:27:27.005Z,7.50
2023-12-27T07:30:29.282Z,7.48
2023-12-27T07:33:31.960Z,7.49
2023-12-27T07:36:34.259Z,7.67
2023-12-27T07:39:36.662Z,7.71
2023-12-27T07:42:39.008Z,7.88
2023-12-27T07:45:41.343Z,7.82
2023-12-27T07:48:43.590Z,7.76
2023-12-27T07:51:46.288Z,7.70
2023-12-27T07:54:48.282Z,7.65
2023-12-27T07:57:51.343Z,7.57
2023-12-27T08:00:54.589Z,7.55
2023-12-27T08:03:56.810Z,7.56
2023-12-27T08:06:58.993Z,7.50
2023-12-27T08:10:01.602Z,7.58
2023-12-27T08:13:05.105Z,7.64
2023-12-27T08:16:09.772Z,7.82
2023-12-27T08:19:11.923Z,7.79
2023-12-27T08:22:13.979Z,7.91
2023-12-27T08:25:17.080Z,7.99
2023-12-27T08:28:19.192Z,8.08
2023-12-27T08:31:21.402Z,8.09
2023-12-27T08:34:23.753Z,8.22
2023-12-27T08:37:27.223Z,8.29
2023-12-27T08:40:29.356Z,8.41
2023-12-27T08:43:31.342Z,8.52
2023-12-27T08:46:34.173Z,8.66
2023-12-27T08:49:36.472Z,8.79
2023-12-27T08:52:40.021Z,8.91
2023-12-27T08:55:42.011Z,9.03
2023-12-27T08:58:44.103Z,9.15
2023-12-27T09:01:46.169Z,9.27
2023-12-27T09:04:48.254Z,9.27
2023-12-27T09:07:50.322Z,9.23
2023-12-27T09:10:52.392Z,9.14
2023-12-27T09:13:54.415Z,9.21
2023-12-27T09:16:56.395Z,9.33
2023-12-27T09:19:58.453Z,9.38
2023-12-27T09:23:01.965Z,9.46
2023-12-27T09:26:04.116Z,9.62
2023-12-27T09:29:06.252Z,9.44
2023-12-27T09:32:08.384Z,9.36
2023-12-27T09:35:10.694Z,9.29
2023-12-27T09:38:12.793Z,9.24
2023-12-27T09:41:15.984Z,9.26
2023-12-27T09:44:21.711Z,9.34
2023-12-27T09:47:25.112Z,9.43
2023-12-27T09:50:27.248Z,9.38
2023-12-27T09:53:29.391Z,9.71
2023-12-27T09:56:32.773Z,9.60
2023-12-27T09:59:40.304Z,9.81
2023-12-27T10:02:43.530Z,9.78
2023-12-27T10:05:56.046Z,10.03
2023-12-27T10:08:59.018Z,10.09
2023-12-27T10:12:02.094Z,10.32
2023-12-27T10:15:05.979Z,10.58
2023-12-27T10:18:09.477Z,10.54
2023-12-27T10:21:13.267Z,10.40
2023-12-27T10:24:16.041Z,10.38
2023-12-27T10:27:18.632Z,10.33
2023-12-27T10:30:21.022Z,10.40
2023-12-27T10:33:28.649Z,10.39
2023-12-27T10:36:34.993Z,10.45
2023-12-27T10:39:43.702Z,10.44
2023-12-27T10:42:47.946Z,10.41
2023-12-27T10:45:49.983Z,10.44
2023-12-27T10:48:56.497Z,10.63
2023-12-27T10:52:00.826Z,10.70
2023-12-27T10:55:04.949Z,10.87
2023-12-27T10:58:12.136Z,11.01
2023-12-27T11:01:15.264Z,10.98
2023-12-27T11:04:19.867Z,11.07
2023-12-27T11:07:26.394Z,11.15
2023-12-27T11:10:31.509Z,11.24
2023-12-27T11:13:35.229Z,11.36
2023-12-27T11:16:41.026Z,11.24
2023-12-27T11:19:44.299Z,10.77
2023-12-27T11:22:46.566Z,10.40
2023-12-27T11:25:48.700Z,10.19
2023-12-27T11:28:51.317Z,10.13
2023-12-27T11:31:54.677Z,9.89
2023-12-27T11:34:57.285Z,9.62
2023-12-27T11:38:21.169Z,9.64
2023-12-27T11:41:23.338Z,9.51
2023-12-27T11:44:36.258Z,9.51
2023-12-27T11:47:39.536Z,9.92
2023-12-27T11:50:43.173Z,9.71
2023-12-27T11:53:47.444Z,9.58
2023-12-27T11:56:49.545Z,9.54
2023-12-27T11:59:57.052Z,9.66
2023-12-27T12:03:01.605Z,9.52
2023-12-27T12:06:35.951Z,9.52
2023-12-27T12:09:40.449Z,9.53
2023-12-27T12:12:43.547Z,9.51
2023-12-27T12:15:45.685Z,9.45
2023-12-27T12:18:49.035Z,9.42
2023-12-27T12:21:53.838Z,9.38
2023-12-27T12:25:07.144Z,9.47
2023-12-27T12:28:10.271Z,9.67
2023-12-27T12:31:13.169Z,9.44
2023-12-27T12:34:15.310Z,9.40
2023-12-27T12:37:18.709Z,9.73
2023-12-27T12:40:22.075Z,9.36
2023-12-27T12:43:24.172Z,9.21
2023-12-27T12:46:26.562Z,9.18
2023-12-27T12:49:30.837Z,9.28
2023-12-27T12:52:37.239Z,9.14
2023-12-27T12:55:39.532Z,9.09
2023-12-27T12:58:43.318Z,9.19
2023-12-27T13:01:45.764Z,9.04
2023-12-27T13:04:59.474Z,9.02
2023-12-27T13:08:07.815Z,8.74
2023-12-27T13:11:12.386Z,8.95
2023-12-27T13:14:15.702Z,8.79
2023-12-27T18:20:18.299Z,1.14
2023-12-27T18:23:20.449Z,1.01
2023-12-27T18:26:31.815Z,1.09
2023-12-27T18:29:41.213Z,0.99
2023-12-27T18:51:16.423Z,-0.39
2023-12-27T18:54:28.550Z,-1.97
2023-12-27T18:57:31.067Z,-1.63
2023-12-27T19:00:33.510Z,-0.86
2023-12-27T19:03:39.349Z,-2.20
2023-12-27T19:06:41.980Z,-1.01
2023-12-27T19:09:44.585Z,-0.36
2023-12-27T19:12:47.319Z,0.02
2023-12-27T19:15:50.216Z,-0.99
2023-12-27T19:18:53.090Z,0.45
2023-12-27T19:21:57.856Z,0.43
2023-12-27T19:25:00.591Z,-0.36
2023-12-27T19:28:04.157Z,-0.80
2023-12-27T19:31:07.504Z,0.55
2023-12-27T19:34:10.971Z,0.41
2023-12-27T19:37:13.688Z,-1.34
2023-12-27T19:40:16.965Z,-0.27
2023-12-27T19:43:19.637Z,0.29
2023-12-27T19:46:22.892Z,-1.23
2023-12-27T19:49:26.167Z,-2.01
2023-12-27T19:52:28.966Z,-0.63
2023-12-27T19:55:31.810Z,0.11
2023-12-27T19:58:35.006Z,-1.17
2023-12-27T20:01:38.207Z,-0.24
2023-12-27T20:04:41.293Z,-0.57
2023-12-27T20:07:44.502Z,-1.72
2023-12-27T20:10:47.674Z,0.66
2023-12-27T20:13:53.431Z,0.73
2023-12-27T20:16:56.834Z,-1.72
2023-12-27T20:20:00.826Z,0.12
2023-12-27T20:23:04.169Z,-1.20
2023-12-27T20:26:09.073Z,0.75
2023-12-27T20:29:12.260Z,-0.63
2023-12-27T20:32:18.792Z,0.72
2023-12-27T20:35:23.393Z,-0.14
2023-12-27T20:38:28.090Z,-0.63
2023-12-27T20:41:34.383Z,0.44
2023-12-27T20:44:37.596Z,-1.65
2023-12-27T20:47:41.284Z,-0.63
2023-12-27T20:50:44.848Z,-0.51
2023-12-27T20:53:48.244Z,-0.44
2023-12-27T20:56:51.767Z,-2.19
2023-12-27T20:59:55.535Z,-1.31
2023-12-27T21:02:59.001Z,-0.10
2023-12-27T21:06:01.318Z,-0.54
2023-12-27T21:09:04.375Z,0.64
2023-12-27T21:12:16.263Z,0.61
2023-12-27T21:15:18.605Z,-2.04
2023-12-27T21:18:20.923Z,-1.94
2023-12-27T21:21:23.209Z,-1.00
2023-12-27T21:24:25.485Z,0.63
2023-12-27T21:27:28.240Z,-1.01
2023-12-27T21:30:30.592Z,-1.35
2023-12-27T21:33:47.969Z,-2.21
2023-12-27T21:41:48.116Z,0.59
2023-12-27T21:44:58.170Z,-1.14
2023-12-27T21:48:01.042Z,0.51
2023-12-27T21:51:03.716Z,-1.30
2023-12-27T21:54:06.481Z,-0.04
2023-12-27T21:57:08.867Z,-0.78
2023-12-27T22:00:11.636Z,-0.55
2023-12-27T22:03:14.303Z,0.56
2023-12-27T22:06:17.772Z,-0.34
2023-12-27T22:09:20.406Z,-0.58
2023-12-27T22:12:22.706Z,-1.94
2023-12-27T22:15:25.057Z,-0.63
2023-12-27T22:18:27.988Z,-2.62
2023-12-27T22:21:31.439Z,-0.50
2023-12-27T22:27:54.716Z,0.41
2023-12-27T22:39:09.474Z,-2.82
2023-12-27T22:42:19.245Z,-1.18
2023-12-27T22:57:00.367Z,-2.47
2023-12-27T23:00:42.000Z,-0.80
2023-12-27T23:03:46.751Z,0.32
2023-12-27T23:06:50.431Z,-2.54
2023-12-27T23:09:53.158Z,0.26
2023-12-27T23:12:55.721Z,-2.64
2023-12-27T23:15:59.776Z,-2.51
2023-12-27T23:19:02.532Z,-2.30
2023-12-27T23:22:05.588Z,-2.92
2023-12-27T23:25:09.326Z,-2.71
2023-12-27T23:28:11.936Z,-1.58
2023-12-27T23:31:14.880Z,-2.76
2023-12-27T23:34:17.373Z,0.05
2023-12-27T23:37:19.833Z,-0.96
2023-12-27T23:40:22.095Z,-0.98
2023-12-27T23:43:25.327Z,-2.43
2023-12-27T23:46:27.398Z,-3.01
2023-12-27T23:49:29.816Z,-2.92
2023-12-27T23:52:32.156Z,-0.52
2023-12-27T23:55:35.285Z,-1.62
2023-12-27T23:58:38.562Z,-2.86
